createdAt,value
2023-01-25T00:00:02.520Z,14.23
2023-01-25T00:02:10.073Z,13.50
2023-01-25T00:04:15.412Z,15.02
2023-01-25T00:06:20.366Z,15.35
2023-01-25T00:08:25.180Z,14.43
2023-01-25T00:10:32.611Z,15.40
2023-01-25T00:12:37.539Z,14.10
2023-01-25T00:14:42.489Z,13.75
2023-01-25T00:16:47.764Z,14.65
2023-01-25T00:18:52.956Z,16.42
2023-01-25T00:20:57.735Z,15.50
2023-01-25T00:23:02.586Z,15.80
2023-01-25T00:25:08.484Z,15.38
2023-01-25T00:27:16.151Z,16.75
2023-01-25T00:29:21.073Z,18.33
2023-01-25T00:31:34.782Z,13.70
2023-01-25T00:33:47.495Z,15.32
2023-01-25T00:35:52.649Z,13.88
2023-01-25T00:37:58.215Z,15.55
2023-01-25T00:40:03.651Z,14.38
2023-01-25T00:42:08.889Z,15.52
2023-01-25T00:44:16.315Z,14.18
2023-01-25T00:46:21.499Z,14.63
2023-01-25T00:48:26.461Z,15.25
2023-01-25T00:50:31.295Z,15.38
2023-01-25T00:52:36.283Z,17.02
2023-01-25T00:54:41.387Z,14.98
2023-01-25T00:56:46.281Z,15.68
2023-01-25T00:58:51.057Z,15.32
2023-01-25T01:01:00.666Z,16.13
2023-01-25T01:03:05.992Z,15.57
2023-01-25T01:05:12.002Z,15.13
2023-01-25T01:07:17.887Z,19.10
2023-01-25T01:09:25.058Z,15.88
2023-01-25T01:11:31.551Z,14.73
2023-01-25T01:13:36.732Z,15.95
2023-01-25T01:15:41.571Z,16.35
2023-01-25T01:17:49.184Z,14.23
2023-01-25T01:19:54.121Z,14.82
2023-01-25T01:21:59.045Z,15.65
2023-01-25T01:24:07.595Z,16.20
2023-01-25T01:26:16.840Z,16.10
2023-01-25T01:28:21.846Z,15.95
2023-01-25T01:30:26.826Z,15.80
2023-01-25T01:32:31.864Z,15.07
2023-01-25T01:34:39.721Z,16.02
2023-01-25T01:36:45.139Z,14.65
2023-01-25T01:38:50.410Z,19.40
2023-01-25T01:40:55.228Z,16.63
2023-01-25T01:43:02.271Z,15.05
2023-01-25T01:45:38.559Z,14.82
2023-01-25T01:47:48.865Z,15.05
2023-01-25T01:50:02.427Z,17.95
2023-01-25T01:52:15.223Z,17.23
2023-01-25T01:54:25.770Z,17.85
2023-01-25T01:56:37.910Z,17.83
2023-01-25T01:58:44.760Z,15.70
2023-01-25T02:00:49.597Z,26.35
2023-01-25T02:02:54.625Z,18.27
2023-01-25T02:05:08.238Z,18.08
2023-01-25T02:07:19.385Z,16.55
2023-01-25T02:09:28.311Z,16.25
2023-01-25T02:11:35.137Z,16.60
2023-01-25T02:13:41.530Z,19.67
2023-01-25T02:15:49.022Z,16.25
2023-01-25T02:17:54.821Z,17.58
2023-01-25T02:20:10.099Z,18.35
2023-01-25T02:22:20.475Z,16.25
2023-01-25T02:24:33.983Z,15.00
2023-01-25T02:26:41.909Z,17.20
2023-01-25T02:28:51.529Z,17.27
2023-01-25T02:30:56.555Z,17.48
2023-01-25T02:33:02.150Z,17.05
2023-01-25T02:35:08.063Z,15.18
2023-01-25T02:37:17.847Z,15.95
2023-01-25T02:39:25.780Z,17.02
2023-01-25T02:41:35.098Z,20.00
2023-01-25T02:43:42.918Z,19.67
2023-01-25T02:45:52.333Z,18.40
2023-01-25T02:47:58.971Z,16.88
2023-01-25T02:50:03.780Z,13.52
2023-01-25T02:52:10.986Z,14.40
2023-01-25T02:54:16.665Z,16.17
2023-01-25T02:56:22.228Z,16.40
2023-01-25T02:58:27.109Z,16.55
2023-01-25T03:00:34.813Z,15.93
2023-01-25T03:02:39.919Z,15.93
2023-01-25T03:04:44.890Z,15.55
2023-01-25T03:06:50.529Z,19.88
2023-01-25T03:08:56.554Z,13.82
2023-01-25T03:11:02.260Z,16.00
2023-01-25T03:13:08.756Z,15.93
2023-01-25T03:15:13.623Z,17.73
2023-01-25T03:17:22.054Z,17.15
2023-01-25T03:19:26.933Z,15.52
2023-01-25T03:21:32.155Z,17.88
2023-01-25T03:23:37.379Z,17.05
2023-01-25T03:25:42.456Z,18.50
2023-01-25T03:27:52.396Z,16.23
2023-01-25T03:29:57.691Z,16.35
2023-01-25T03:32:06.036Z,14.43
2023-01-25T03:34:13.700Z,16.85
2023-01-25T03:36:20.383Z,16.45
2023-01-25T03:38:25.493Z,14.98
2023-01-25T03:40:30.318Z,15.95
2023-01-25T03:42:35.119Z,17.45
2023-01-25T03:44:40.899Z,15.00
2023-01-25T03:46:45.974Z,13.88
2023-01-25T03:48:51.168Z,16.88
2023-01-25T03:51:00.535Z,17.88
2023-01-25T03:53:10.062Z,15.88
2023-01-25T03:55:14.883Z,15.43
2023-01-25T03:57:22.071Z,16.98
2023-01-25T03:59:32.143Z,14.13
2023-01-25T04:01:37.167Z,14.13
2023-01-25T04:03:42.211Z,16.65
2023-01-25T04:05:49.134Z,15.15
2023-01-25T04:07:58.086Z,14.98
2023-01-25T04:10:12.886Z,15.23
2023-01-25T04:12:22.360Z,13.75
2023-01-25T04:14:43.173Z,15.25
2023-01-25T04:16:50.945Z,16.00
2023-01-25T04:19:15.459Z,15.10
2023-01-25T04:21:20.624Z,14.27
2023-01-25T04:23:29.600Z,16.73
2023-01-25T04:25:34.708Z,15.25
2023-01-25T04:27:40.200Z,15.10
2023-01-25T04:29:49.063Z,14.02
2023-01-25T04:31:57.664Z,15.82
2023-01-25T04:34:02.607Z,13.88
2023-01-25T04:36:08.661Z,15.75
2023-01-25T04:38:14.438Z,13.93
2023-01-25T04:40:24.793Z,17.65
2023-01-25T04:42:29.859Z,13.93
2023-01-25T04:44:35.515Z,16.60
2023-01-25T04:46:41.355Z,17.10
2023-01-25T04:48:46.149Z,14.45
2023-01-25T04:50:51.199Z,15.23
2023-01-25T04:52:59.325Z,15.05
2023-01-25T04:55:08.117Z,18.08
2023-01-25T04:57:21.643Z,16.23
2023-01-25T04:59:30.373Z,16.73
2023-01-25T05:01:35.225Z,17.63
2023-01-25T05:03:43.792Z,17.23
2023-01-25T05:06:02.885Z,22.23
2023-01-25T05:08:08.139Z,21.02
2023-01-25T05:10:14.147Z,30.60
2023-01-25T05:12:37.722Z,26.83
2023-01-25T05:14:44.387Z,21.25
2023-01-25T05:16:49.560Z,19.75
2023-01-25T05:18:54.529Z,16.25
2023-01-25T05:21:04.913Z,17.70
2023-01-25T05:23:09.814Z,17.48
2023-01-25T05:25:26.915Z,16.98
2023-01-25T05:27:32.029Z,16.77
2023-01-25T05:30:00.144Z,14.20
2023-01-25T05:32:17.385Z,17.73
2023-01-25T05:34:22.614Z,19.65
2023-01-25T05:36:27.721Z,20.33
2023-01-25T05:38:33.221Z,19.20
2023-01-25T05:40:37.990Z,18.33
2023-01-25T05:42:43.568Z,18.25
2023-01-25T05:44:55.488Z,17.15
2023-01-25T05:47:04.659Z,18.23
2023-01-25T05:49:09.774Z,15.35
2023-01-25T05:51:14.714Z,17.42
2023-01-25T05:53:20.732Z,17.40
2023-01-25T05:55:25.607Z,19.60
2023-01-25T05:57:31.632Z,19.88
2023-01-25T05:59:39.377Z,15.63
2023-01-25T06:01:47.340Z,18.30
2023-01-25T06:03:55.190Z,18.15
2023-01-25T06:06:03.012Z,18.55
2023-01-25T06:08:09.575Z,17.52
2023-01-25T06:10:24.192Z,16.13
2023-01-25T06:12:30.186Z,17.70
2023-01-25T06:14:36.646Z,18.70
2023-01-25T06:16:41.922Z,20.45
2023-01-25T06:19:24.817Z,17.35
2023-01-25T06:21:50.012Z,25.70
2023-01-25T06:23:55.217Z,19.77
2023-01-25T06:26:02.058Z,19.63
2023-01-25T06:28:07.144Z,18.38
2023-01-25T06:30:13.660Z,18.85
2023-01-25T06:32:18.511Z,17.33
2023-01-25T06:34:26.184Z,14.75
2023-01-25T06:36:32.100Z,20.77
2023-01-25T06:38:37.101Z,17.13
2023-01-25T06:40:41.905Z,17.92
2023-01-25T06:42:46.761Z,20.85
2023-01-25T06:44:51.509Z,21.10
2023-01-25T06:46:58.125Z,19.42
2023-01-25T06:49:03.005Z,22.70
2023-01-25T06:51:12.399Z,21.42
2023-01-25T06:53:17.155Z,19.83
2023-01-25T06:55:22.462Z,21.15
2023-01-25T06:57:27.335Z,20.00
2023-01-25T06:59:32.213Z,22.08
2023-01-25T07:01:37.774Z,21.27
2023-01-25T07:03:43.636Z,24.80
2023-01-25T07:05:49.659Z,27.50
2023-01-25T07:07:57.104Z,24.98
2023-01-25T07:10:02.274Z,21.35
2023-01-25T07:12:07.757Z,18.02
2023-01-25T07:14:12.583Z,17.77
2023-01-25T07:16:19.404Z,18.63
2023-01-25T07:18:24.800Z,18.08
2023-01-25T07:20:29.650Z,22.30
2023-01-25T07:22:34.406Z,18.42
2023-01-25T07:24:43.444Z,18.70
2023-01-25T07:26:49.486Z,20.60
2023-01-25T07:28:55.447Z,22.08
2023-01-25T07:31:06.709Z,19.63
2023-01-25T07:33:11.923Z,21.35
2023-01-25T07:35:16.776Z,19.73
2023-01-25T07:37:21.764Z,19.17
2023-01-25T07:39:26.712Z,21.40
2023-01-25T07:41:34.429Z,18.13
2023-01-25T07:43:40.231Z,19.02
2023-01-25T07:45:48.928Z,17.42
2023-01-25T07:47:54.747Z,19.75
2023-01-25T07:49:59.638Z,19.52
2023-01-25T07:52:04.807Z,17.17
2023-01-25T07:54:09.760Z,19.30
2023-01-25T07:56:16.122Z,16.42
2023-01-25T07:58:23.638Z,18.90
2023-01-25T08:00:28.533Z,18.67
2023-01-25T08:02:33.480Z,18.80
2023-01-25T08:04:39.014Z,20.20
2023-01-25T08:06:46.698Z,20.83
2023-01-25T08:08:52.771Z,16.98
2023-01-25T08:11:04.869Z,18.95
2023-01-25T08:13:09.756Z,17.17
2023-01-25T08:15:17.675Z,21.50
2023-01-25T08:17:22.815Z,20.40
2023-01-25T08:19:28.248Z,18.02
2023-01-25T08:21:35.416Z,18.58
2023-01-25T08:23:40.449Z,18.80
2023-01-25T08:25:46.099Z,21.27
2023-01-25T08:27:52.371Z,18.77
2023-01-25T08:29:57.511Z,20.27
2023-01-25T08:32:06.494Z,19.10
2023-01-25T08:34:12.850Z,20.95
2023-01-25T08:36:19.618Z,18.17
2023-01-25T08:38:24.622Z,19.58
2023-01-25T08:40:29.720Z,20.25
2023-01-25T08:42:35.028Z,21.60
2023-01-25T08:44:40.243Z,18.88
2023-01-25T08:46:46.417Z,17.05
2023-01-25T08:48:56.659Z,22.10
2023-01-25T08:51:01.453Z,19.95
2023-01-25T08:53:06.399Z,20.50
2023-01-25T08:55:12.548Z,21.67
2023-01-25T08:57:17.596Z,21.48
2023-01-25T08:59:22.565Z,22.33
2023-01-25T09:01:27.944Z,23.13
2023-01-25T09:03:33.549Z,19.90
2023-01-25T09:05:42.901Z,23.48
2023-01-25T09:07:48.486Z,22.92
2023-01-25T09:09:53.375Z,21.33
2023-01-25T09:11:58.185Z,20.23
2023-01-25T09:14:03.230Z,23.88
2023-01-25T09:16:10.057Z,21.00
2023-01-25T09:18:15.654Z,24.13
2023-01-25T09:20:20.797Z,23.65
2023-01-25T09:22:28.372Z,23.90
2023-01-25T09:24:36.988Z,21.23
2023-01-25T09:26:50.076Z,24.75
2023-01-25T09:29:00.734Z,22.15
2023-01-25T09:31:21.105Z,25.30
2023-01-25T09:33:54.425Z,23.85
2023-01-25T09:35:59.488Z,23.52
2023-01-25T09:38:07.166Z,25.75
2023-01-25T09:40:21.919Z,24.35
2023-01-25T09:42:40.655Z,23.70
2023-01-25T09:45:13.802Z,22.05
2023-01-25T09:47:29.100Z,23.73
2023-01-25T09:49:52.477Z,23.48
2023-01-25T09:52:09.143Z,23.02
2023-01-25T09:54:19.626Z,21.05
2023-01-25T09:56:29.607Z,22.75
2023-01-25T09:58:37.956Z,22.42
2023-01-25T10:00:50.533Z,21.02
2023-01-25T10:03:00.944Z,22.30
2023-01-25T10:05:13.468Z,24.42
2023-01-25T10:07:25.182Z,24.00
2023-01-25T10:09:40.393Z,22.42
2023-01-25T10:11:45.806Z,22.70
2023-01-25T10:13:51.167Z,20.90
2023-01-25T10:16:03.253Z,20.83
2023-01-25T10:18:23.187Z,22.23
2023-01-25T10:20:37.749Z,24.10
2023-01-25T10:22:49.079Z,20.55
2023-01-25T10:25:41.378Z,22.40
2023-01-25T10:28:01.893Z,23.33
2023-01-25T10:30:23.119Z,25.60
2023-01-25T10:32:32.550Z,22.70
2023-01-25T10:34:55.347Z,22.33
2023-01-25T10:37:05.504Z,21.45
2023-01-25T10:39:10.270Z,25.88
2023-01-25T10:41:21.714Z,29.10
2023-01-25T10:43:29.248Z,24.17
2023-01-25T10:45:34.366Z,26.77
2023-01-25T10:47:40.135Z,24.08
2023-01-25T10:49:46.672Z,22.63
2023-01-25T10:51:51.503Z,23.98
2023-01-25T10:54:04.258Z,22.13
2023-01-25T10:56:26.457Z,23.20
2023-01-25T10:58:39.450Z,29.08
2023-01-25T11:00:44.983Z,32.38
2023-01-25T11:02:51.289Z,28.98
2023-01-25T11:04:56.155Z,25.17
2023-01-25T11:07:02.791Z,23.25
2023-01-25T11:09:34.632Z,26.00
2023-01-25T11:11:41.635Z,23.13
2023-01-25T11:13:49.169Z,23.80
2023-01-25T11:15:55.900Z,23.17
2023-01-25T11:18:16.464Z,21.38
2023-01-25T11:20:24.238Z,23.60
2023-01-25T11:22:29.410Z,22.67
2023-01-25T11:24:36.512Z,24.48
2023-01-25T11:26:58.186Z,22.42
2023-01-25T11:29:16.281Z,22.27
2023-01-25T11:31:25.537Z,25.52
2023-01-25T11:33:32.542Z,22.25
2023-01-25T11:35:39.899Z,24.77
2023-01-25T11:38:11.784Z,23.83
2023-01-25T11:40:24.191Z,21.00
2023-01-25T11:42:37.579Z,24.23
2023-01-25T11:45:08.289Z,24.77
2023-01-25T11:47:25.660Z,24.70
2023-01-25T11:49:42.434Z,24.92
2023-01-25T11:51:57.249Z,27.25
2023-01-25T11:54:12.801Z,25.35
2023-01-25T11:56:29.444Z,24.15
2023-01-25T11:58:55.227Z,25.88
2023-01-25T12:01:14.136Z,23.98
2023-01-25T12:03:52.966Z,25.90
2023-01-25T12:06:06.862Z,23.52
2023-01-25T12:08:24.983Z,23.98
2023-01-25T12:10:40.245Z,24.27
2023-01-25T12:12:55.673Z,22.10
2023-01-25T12:15:18.542Z,27.35
2023-01-25T12:17:38.888Z,29.27
2023-01-25T12:19:57.056Z,24.60
2023-01-25T12:22:14.426Z,21.77
2023-01-25T12:24:39.592Z,25.58
2023-01-25T12:26:53.685Z,25.00
2023-01-25T12:29:08.479Z,26.30
2023-01-25T12:31:20.235Z,27.52
2023-01-25T12:33:35.128Z,26.73
2023-01-25T12:35:44.475Z,29.13
2023-01-25T12:37:50.910Z,26.77
2023-01-25T12:40:02.030Z,27.73
2023-01-25T12:42:12.897Z,28.15
2023-01-25T12:44:22.364Z,25.55
2023-01-25T12:46:31.458Z,28.60
2023-01-25T12:48:44.222Z,24.70
2023-01-25T12:50:55.174Z,27.17
2023-01-25T12:53:05.789Z,27.65
2023-01-25T12:55:17.307Z,25.33
2023-01-25T12:57:27.351Z,27.40
2023-01-25T12:59:40.084Z,26.38
2023-01-25T13:01:52.302Z,26.83
2023-01-25T13:04:18.058Z,25.08
2023-01-25T13:06:30.108Z,24.00
2023-01-25T13:08:42.877Z,25.35
2023-01-25T13:10:51.624Z,27.15
2023-01-25T13:12:58.265Z,26.95
2023-01-25T13:15:03.152Z,23.75
2023-01-25T13:17:27.446Z,25.08
2023-01-25T13:19:45.666Z,24.50
2023-01-25T13:21:52.572Z,22.85
2023-01-25T13:24:19.034Z,24.83
2023-01-25T13:26:49.460Z,23.45
2023-01-25T13:28:56.451Z,26.33
2023-01-25T13:31:01.360Z,25.60
2023-01-25T13:33:08.746Z,26.90
2023-01-25T13:35:33.963Z,28.52
2023-01-25T13:37:45.311Z,25.63
2023-01-25T13:39:51.589Z,26.50
2023-01-25T13:42:01.954Z,27.45
2023-01-25T13:44:28.473Z,30.88
2023-01-25T13:46:33.327Z,25.63
2023-01-25T13:48:39.356Z,26.48
2023-01-25T13:50:53.309Z,31.40
2023-01-25T13:53:02.371Z,23.80
2023-01-25T13:55:20.407Z,25.48
2023-01-25T13:57:27.262Z,24.15
2023-01-25T13:59:32.872Z,24.70
2023-01-25T14:01:39.660Z,29.02
2023-01-25T14:03:46.645Z,28.88
2023-01-25T14:05:56.639Z,24.98
2023-01-25T14:08:01.552Z,29.65
2023-01-25T14:10:12.949Z,26.42
2023-01-25T14:12:32.642Z,44.83
2023-01-25T14:14:38.769Z,30.67
2023-01-25T14:16:43.524Z,29.33
2023-01-25T14:18:49.740Z,28.63
2023-01-25T14:21:13.477Z,32.90
2023-01-25T14:23:25.023Z,27.15
2023-01-25T14:25:29.835Z,27.17
2023-01-25T14:27:35.936Z,27.58
2023-01-25T14:29:41.076Z,29.63
2023-01-25T14:31:46.042Z,26.25
2023-01-25T14:33:54.763Z,27.60
2023-01-25T14:36:16.337Z,25.63
2023-01-25T14:38:32.574Z,24.20
2023-01-25T14:40:37.563Z,26.58
2023-01-25T14:42:42.607Z,22.85
2023-01-25T14:44:48.317Z,24.35
2023-01-25T14:47:13.057Z,28.17
2023-01-25T14:49:25.688Z,27.02
2023-01-25T14:51:37.332Z,22.00
2023-01-25T14:53:46.649Z,23.52
2023-01-25T14:55:53.477Z,23.45
2023-01-25T14:58:02.758Z,25.80
2023-01-25T15:00:10.091Z,22.15
2023-01-25T15:02:22.705Z,20.80
2023-01-25T15:04:27.679Z,22.47
2023-01-25T15:06:35.245Z,26.48
2023-01-25T15:08:41.466Z,24.20
2023-01-25T15:10:56.617Z,22.17
2023-01-25T15:13:13.758Z,22.52
2023-01-25T15:15:24.971Z,20.77
2023-01-25T15:17:43.987Z,21.75
2023-01-25T15:19:55.255Z,22.48
2023-01-25T15:22:03.618Z,21.58
2023-01-25T15:24:14.550Z,23.95
2023-01-25T15:26:23.494Z,23.70
2023-01-25T15:28:34.416Z,24.55
2023-01-25T15:30:39.283Z,24.02
2023-01-25T15:32:44.232Z,20.10
2023-01-25T15:34:49.597Z,20.02
2023-01-25T15:36:54.623Z,20.58
2023-01-25T15:39:02.511Z,22.95
2023-01-25T15:41:07.494Z,20.35
2023-01-25T15:43:16.511Z,23.63
2023-01-25T15:45:21.271Z,22.65
2023-01-25T15:47:26.052Z,24.73
2023-01-25T15:49:41.858Z,20.75
2023-01-25T15:51:51.376Z,21.05
2023-01-25T15:53:57.570Z,20.80
2023-01-25T15:56:12.862Z,24.13
2023-01-25T16:01:27.917Z,20.67
2023-01-25T16:03:33.851Z,21.45
2023-01-25T16:05:40.171Z,20.65
2023-01-25T16:07:47.056Z,21.20
2023-01-25T16:09:52.053Z,21.55
2023-01-25T16:12:01.601Z,21.42
2023-01-25T16:14:06.531Z,20.45
2023-01-25T16:16:21.152Z,25.13
2023-01-25T16:18:25.992Z,25.92
2023-01-25T16:20:30.870Z,20.67
2023-01-25T16:22:35.656Z,31.88
2023-01-25T16:24:40.508Z,26.00
2023-01-25T16:26:48.610Z,25.42
2023-01-25T16:28:56.299Z,22.02
2023-01-25T16:31:01.912Z,19.02
2023-01-25T16:33:06.833Z,21.13
2023-01-25T16:35:12.612Z,24.00
2023-01-25T16:37:18.621Z,19.77
2023-01-25T16:39:25.601Z,22.95
2023-01-25T16:41:30.417Z,22.65
2023-01-25T16:43:42.694Z,21.70
2023-01-25T16:45:50.436Z,24.52
2023-01-25T16:47:55.246Z,18.23
2023-01-25T16:49:59.998Z,21.30
2023-01-25T16:52:05.925Z,23.42
2023-01-25T16:54:13.745Z,20.23
2023-01-25T16:56:23.309Z,21.15
2023-01-25T16:58:28.092Z,23.23
2023-01-25T17:00:32.889Z,20.58
2023-01-25T17:02:46.798Z,22.55
2023-01-25T17:05:02.100Z,19.63
2023-01-25T17:07:08.681Z,22.75
2023-01-25T17:09:23.415Z,18.40
2023-01-25T17:11:29.430Z,21.02
2023-01-25T17:13:34.300Z,20.20
2023-01-25T17:15:39.268Z,22.95
2023-01-25T17:17:46.718Z,22.30
2023-01-25T17:19:52.454Z,23.48
2023-01-25T17:21:59.228Z,22.58
2023-01-25T17:24:05.391Z,19.67
2023-01-25T17:26:12.566Z,18.80
2023-01-25T17:28:17.363Z,19.33
2023-01-25T17:30:22.391Z,21.88
2023-01-25T17:32:28.773Z,27.17
2023-01-25T17:34:36.366Z,22.00
2023-01-25T17:36:43.734Z,22.58
2023-01-25T17:38:49.075Z,18.48
2023-01-25T17:40:54.456Z,18.77
2023-01-25T17:43:01.244Z,19.10
2023-01-25T17:45:06.472Z,17.85
2023-01-25T17:47:11.342Z,21.73
2023-01-25T17:49:18.740Z,17.98
2023-01-25T17:51:26.693Z,19.80
2023-01-25T17:53:31.441Z,16.63
2023-01-25T17:55:39.140Z,19.25
2023-01-25T17:57:44.596Z,16.45
2023-01-25T17:59:49.350Z,18.00
2023-01-25T18:01:54.154Z,17.95
2023-01-25T18:04:00.812Z,18.13
2023-01-25T18:06:09.189Z,17.33
2023-01-25T18:08:16.566Z,17.23
2023-01-25T18:10:21.733Z,16.60
2023-01-25T18:12:27.500Z,20.00
2023-01-25T18:14:32.825Z,16.30
2023-01-25T18:16:39.420Z,15.43
2023-01-25T18:18:45.793Z,19.23
2023-01-25T18:20:51.058Z,19.60
2023-01-25T18:22:55.938Z,19.38
2023-01-25T18:25:03.742Z,15.88
2023-01-25T18:27:18.003Z,16.95
2023-01-25T18:29:39.991Z,19.80
2023-01-25T18:31:57.032Z,15.93
2023-01-25T18:34:02.132Z,16.25
2023-01-25T18:36:07.841Z,19.30
2023-01-25T18:38:20.746Z,17.60
2023-01-25T18:40:31.623Z,18.92
2023-01-25T18:42:42.649Z,16.38
2023-01-25T18:44:48.578Z,18.05
2023-01-25T18:46:53.632Z,15.90
2023-01-25T18:48:58.552Z,18.25
2023-01-25T18:51:09.776Z,18.95
2023-01-25T18:53:16.743Z,16.10
2023-01-25T18:55:21.571Z,17.88
2023-01-25T18:57:29.477Z,20.88
2023-01-25T18:59:34.673Z,19.42
2023-01-25T19:01:39.687Z,16.80
2023-01-25T19:03:46.141Z,16.45
2023-01-25T19:05:54.169Z,19.83
2023-01-25T19:07:59.033Z,37.53
2023-01-25T19:10:03.993Z,34.55
2023-01-25T19:12:09.773Z,40.45
2023-01-25T19:14:17.200Z,29.35
2023-01-25T19:16:24.596Z,36.60
2023-01-25T19:18:33.730Z,29.58
2023-01-25T19:20:38.517Z,25.13
2023-01-25T19:22:43.266Z,19.35
2023-01-25T19:24:48.051Z,18.17
2023-01-25T19:26:54.326Z,19.27
2023-01-25T19:28:59.636Z,20.40
2023-01-25T19:31:12.969Z,20.38
2023-01-25T19:35:22.339Z,15.18
2023-01-25T19:37:27.413Z,17.83
2023-01-25T19:39:32.543Z,18.45
2023-01-25T19:41:58.561Z,16.92
2023-01-25T19:44:04.773Z,16.73
2023-01-25T19:46:14.633Z,14.55
2023-01-25T19:48:22.070Z,17.00
2023-01-25T19:50:27.761Z,17.38
2023-01-25T19:52:32.557Z,16.67
2023-01-25T19:54:37.412Z,14.35
2023-01-25T19:56:43.864Z,15.68
2023-01-25T19:58:51.302Z,16.40
2023-01-25T20:00:56.437Z,14.80
2023-01-25T20:03:15.988Z,13.52
2023-01-25T20:05:21.427Z,15.82
2023-01-25T20:07:27.887Z,15.60
2023-01-25T20:09:32.659Z,15.75
2023-01-25T20:11:38.571Z,19.33
2023-01-25T20:13:43.659Z,18.73
2023-01-25T20:15:51.298Z,15.05
2023-01-25T20:17:56.131Z,17.75
2023-01-25T20:20:03.868Z,17.98
2023-01-25T20:22:08.768Z,16.30
2023-01-25T20:24:13.659Z,15.93
2023-01-25T20:26:20.592Z,16.30
2023-01-25T20:28:25.545Z,16.90
2023-01-25T20:30:30.794Z,20.05
2023-01-25T20:32:38.880Z,16.60
2023-01-25T20:34:43.725Z,18.13
2023-01-25T20:36:52.226Z,16.70
2023-01-25T20:38:57.804Z,14.85
2023-01-25T20:41:03.131Z,16.95
2023-01-25T20:43:07.981Z,18.52
2023-01-25T20:45:17.334Z,17.25
2023-01-25T20:47:22.532Z,16.52
2023-01-25T20:49:27.342Z,14.77
2023-01-25T20:51:34.004Z,18.90
2023-01-25T20:53:42.325Z,16.75
2023-01-25T20:55:47.283Z,17.38
2023-01-25T20:57:54.289Z,16.55
2023-01-25T20:59:59.291Z,18.98
2023-01-25T21:02:04.193Z,18.17
2023-01-25T21:04:11.700Z,23.08
2023-01-25T21:06:17.621Z,18.95
2023-01-25T21:08:23.588Z,23.42
2023-01-25T21:10:31.358Z,15.68
2023-01-25T21:12:36.211Z,20.83
2023-01-25T21:14:41.149Z,19.67
2023-01-25T21:16:45.987Z,16.70
2023-01-25T21:18:52.477Z,20.75
2023-01-25T21:21:05.717Z,19.55
2023-01-25T21:23:10.478Z,21.33
2023-01-25T21:25:15.372Z,18.08
2023-01-25T21:27:23.054Z,20.40
2023-01-25T21:29:27.879Z,19.02
2023-01-25T21:31:35.334Z,19.55
2023-01-25T21:33:40.359Z,17.83
2023-01-25T21:35:45.325Z,19.05
2023-01-25T21:37:50.501Z,19.05
2023-01-25T21:39:55.509Z,15.00
2023-01-25T21:42:00.485Z,19.08
2023-01-25T21:44:20.718Z,16.55
2023-01-25T21:46:28.582Z,15.55
2023-01-25T21:48:51.660Z,16.98
2023-01-25T21:51:09.064Z,16.52
2023-01-25T21:53:13.926Z,15.98
2023-01-25T21:55:18.738Z,17.50
2023-01-25T21:57:23.548Z,14.93
2023-01-25T21:59:31.160Z,14.60
2023-01-25T22:01:36.224Z,16.83
2023-01-25T22:03:41.076Z,16.52
2023-01-25T22:05:45.906Z,15.45
2023-01-25T22:07:50.776Z,15.32
2023-01-25T22:09:55.696Z,14.68
2023-01-25T22:12:02.071Z,13.68
2023-01-25T22:14:07.493Z,17.83
2023-01-25T22:16:15.865Z,19.80
2023-01-25T22:18:20.729Z,15.52
2023-01-25T22:20:25.481Z,15.98
2023-01-25T22:22:30.374Z,16.20
2023-01-25T22:24:35.251Z,16.73
2023-01-25T22:26:49.087Z,18.63
2023-01-25T22:28:55.923Z,15.38
2023-01-25T22:31:00.919Z,17.52
2023-01-25T22:33:08.432Z,16.35
2023-01-25T22:35:13.703Z,16.77
2023-01-25T22:37:18.825Z,18.80
2023-01-25T22:39:23.709Z,17.80
2023-01-25T22:41:30.863Z,17.92
2023-01-25T22:43:36.006Z,18.25
2023-01-25T22:45:40.770Z,17.77
2023-01-25T22:47:46.257Z,18.77
2023-01-25T22:49:53.681Z,19.05
2023-01-25T22:51:58.575Z,17.05
2023-01-25T22:54:03.621Z,16.38
2023-01-25T22:56:10.775Z,17.35
2023-01-25T22:58:15.674Z,21.15
2023-01-25T23:00:21.716Z,17.50
2023-01-25T23:02:26.629Z,18.35
2023-01-25T23:04:31.536Z,19.35
2023-01-25T23:06:39.349Z,19.90
2023-01-25T23:08:44.654Z,17.73
2023-01-25T23:10:49.408Z,19.45
2023-01-25T23:12:56.780Z,20.23
2023-01-25T23:14:59.215Z,16.88
2023-01-25T23:17:16.378Z,17.73
2023-01-25T23:19:21.303Z,15.93
2023-01-25T23:21:28.752Z,19.42
2023-01-25T23:23:36.156Z,21.20
2023-01-25T23:25:41.544Z,19.23
2023-01-25T23:27:46.572Z,17.17
2023-01-25T23:29:52.118Z,18.02
2023-01-25T23:31:56.931Z,19.83
2023-01-25T23:34:03.792Z,17.05
2023-01-25T23:36:12.560Z,17.38
2023-01-25T23:38:17.805Z,18.55
2023-01-25T23:40:25.233Z,19.15
2023-01-25T23:42:30.169Z,21.55
2023-01-25T23:44:34.977Z,21.38
2023-01-25T23:46:39.889Z,20.80
2023-01-25T23:48:44.878Z,18.10
2023-01-25T23:50:49.768Z,17.30
2023-01-25T23:52:54.575Z,19.25
2023-01-25T23:54:59.471Z,17.52
2023-01-25T23:57:06.902Z,17.80
2023-01-25T23:59:11.756Z,17.13
